createdAt,value
2022-12-18T00:01:38.568Z,13.87
2022-12-18T00:04:20.363Z,15.00
2022-12-18T00:06:49.635Z,14.97
2022-12-18T00:09:18.425Z,14.93
2022-12-18T00:11:45.714Z,13.33
2022-12-18T00:14:14.806Z,12.73
2022-12-18T00:16:46.190Z,14.93
2022-12-18T00:19:14.962Z,8.47
2022-12-18T00:21:43.393Z,7.17
2022-12-18T00:24:12.115Z,7.50
2022-12-18T00:26:40.339Z,11.13
2022-12-18T00:29:17.334Z,6.37
2022-12-18T00:31:45.568Z,7.43
2022-12-18T00:34:14.110Z,7.30
2022-12-18T00:36:42.130Z,11.27
2022-12-18T00:39:12.581Z,10.10
2022-12-18T00:41:58.768Z,10.17
2022-12-18T00:44:26.718Z,11.23
2022-12-18T00:46:53.623Z,11.97
2022-12-18T00:49:21.373Z,10.67
2022-12-18T00:51:49.291Z,10.03
2022-12-18T00:54:17.531Z,9.23
2022-12-18T00:56:49.362Z,7.83
2022-12-18T00:59:18.859Z,9.87
2022-12-18T01:01:47.039Z,9.73
2022-12-18T01:04:14.864Z,9.37
2022-12-18T01:06:42.273Z,8.30
2022-12-18T01:09:09.434Z,7.87
2022-12-18T01:11:37.423Z,5.97
2022-12-18T01:14:05.261Z,6.27
2022-12-18T01:16:33.585Z,6.97
2022-12-18T01:19:02.005Z,7.03
2022-12-18T01:21:33.980Z,7.23
2022-12-18T01:24:03.706Z,7.17
2022-12-18T01:26:30.683Z,4.43
2022-12-18T01:28:58.754Z,7.27
2022-12-18T01:31:33.902Z,6.27
2022-12-18T01:34:07.261Z,6.47
2022-12-18T01:36:38.134Z,6.90
2022-12-18T01:39:15.062Z,6.03
2022-12-18T01:42:02.090Z,5.97
2022-12-18T01:44:58.852Z,6.37
2022-12-18T01:47:31.398Z,5.50
2022-12-18T01:50:02.461Z,6.13
2022-12-18T01:52:32.997Z,5.90
2022-12-18T01:55:01.833Z,6.33
2022-12-18T01:57:30.078Z,4.20
2022-12-18T02:00:08.091Z,5.00
2022-12-18T02:02:35.467Z,4.63
2022-12-18T02:05:04.431Z,5.60
2022-12-18T02:07:31.240Z,5.47
2022-12-18T02:10:32.588Z,6.43
2022-12-18T02:13:43.085Z,5.17
2022-12-18T02:16:45.928Z,5.33
2022-12-18T02:19:36.566Z,5.23
2022-12-18T02:22:12.139Z,5.27
2022-12-18T02:25:14.273Z,6.00
2022-12-18T02:27:47.378Z,4.73
2022-12-18T02:30:16.223Z,6.77
2022-12-18T02:32:51.281Z,5.27
2022-12-18T02:35:26.222Z,5.53
2022-12-18T02:37:57.613Z,6.00
2022-12-18T02:40:28.439Z,4.80
2022-12-18T02:42:55.808Z,4.97
2022-12-18T02:45:22.756Z,5.40
2022-12-18T02:47:51.064Z,5.63
2022-12-18T02:50:37.874Z,5.67
2022-12-18T02:53:32.572Z,5.20
2022-12-18T02:56:14.843Z,5.33
2022-12-18T02:59:25.011Z,5.73
2022-12-18T03:02:33.156Z,4.50
2022-12-18T03:05:51.532Z,5.37
2022-12-18T03:08:44.614Z,4.53
2022-12-18T03:11:14.850Z,6.60
2022-12-18T03:13:57.384Z,5.37
2022-12-18T03:16:30.085Z,5.97
2022-12-18T03:19:15.952Z,5.80
2022-12-18T03:21:54.357Z,6.17
2022-12-18T03:24:24.072Z,6.13
2022-12-18T03:26:58.848Z,6.80
2022-12-18T03:29:41.755Z,6.23
2022-12-18T03:32:34.438Z,5.47
2022-12-18T03:35:06.404Z,6.53
2022-12-18T03:37:33.977Z,5.73
2022-12-18T03:40:00.959Z,7.00
2022-12-18T03:42:46.562Z,6.20
2022-12-18T03:45:35.828Z,6.90
2022-12-18T03:48:18.782Z,5.13
2022-12-18T03:50:58.996Z,5.43
2022-12-18T03:54:01.810Z,5.33
2022-12-18T03:56:36.570Z,4.57
2022-12-18T03:59:06.133Z,3.93
2022-12-18T04:01:47.204Z,2.73
2022-12-18T04:04:17.145Z,3.33
2022-12-18T04:06:47.710Z,5.67
2022-12-18T04:09:15.667Z,5.77
2022-12-18T04:11:46.365Z,5.70
2022-12-18T04:14:17.590Z,5.67
2022-12-18T04:16:45.236Z,6.43
2022-12-18T04:19:12.208Z,5.80
2022-12-18T04:21:39.036Z,6.57
2022-12-18T04:24:06.230Z,5.93
2022-12-18T04:26:33.135Z,6.57
2022-12-18T04:28:59.945Z,3.40
2022-12-18T04:31:27.278Z,6.00
2022-12-18T04:33:54.251Z,4.73
2022-12-18T04:36:21.701Z,2.60
2022-12-18T04:38:48.983Z,5.57
2022-12-18T04:41:16.259Z,4.90
2022-12-18T04:43:44.340Z,6.03
2022-12-18T04:46:11.402Z,4.97
2022-12-18T04:48:39.942Z,3.03
2022-12-18T04:51:08.023Z,4.43
2022-12-18T04:53:35.132Z,3.43
2022-12-18T04:56:14.954Z,5.87
2022-12-18T04:58:45.744Z,5.57
2022-12-18T05:01:19.030Z,5.97
2022-12-18T05:03:47.661Z,5.73
2022-12-18T05:06:16.647Z,7.40
2022-12-18T05:08:43.813Z,6.40
2022-12-18T05:11:17.556Z,7.40
2022-12-18T05:13:45.492Z,6.23
2022-12-18T05:16:14.542Z,6.77
2022-12-18T05:18:43.348Z,7.97
2022-12-18T05:21:13.890Z,6.90
2022-12-18T05:23:42.761Z,8.90
2022-12-18T05:26:18.719Z,6.87
2022-12-18T05:28:47.103Z,6.97
2022-12-18T05:31:14.977Z,8.23
2022-12-18T05:33:43.883Z,6.53
2022-12-18T05:36:13.674Z,8.67
2022-12-18T05:38:42.679Z,7.83
2022-12-18T05:41:11.472Z,6.10
2022-12-18T05:43:42.398Z,4.80
2022-12-18T05:46:18.604Z,4.57
2022-12-18T05:48:46.359Z,10.03
2022-12-18T05:51:17.726Z,6.90
2022-12-18T05:53:45.324Z,7.77
2022-12-18T05:56:20.176Z,7.07
2022-12-18T05:58:48.660Z,5.13
2022-12-18T06:01:18.784Z,8.03
2022-12-18T06:03:46.553Z,8.27
2022-12-18T06:06:15.872Z,5.97
2022-12-18T06:08:46.171Z,13.00
2022-12-18T06:11:16.841Z,9.50
2022-12-18T06:13:43.762Z,7.17
2022-12-18T06:16:10.774Z,8.10
2022-12-18T06:18:40.753Z,4.33
2022-12-18T06:21:07.682Z,6.93
2022-12-18T06:23:35.101Z,7.33
2022-12-18T06:26:12.268Z,7.27
2022-12-18T06:28:39.624Z,7.83
2022-12-18T06:31:07.844Z,7.70
2022-12-18T06:33:36.225Z,7.70
2022-12-18T06:36:11.191Z,7.43
2022-12-18T06:38:41.639Z,7.20
2022-12-18T06:41:10.750Z,8.10
2022-12-18T06:43:38.369Z,8.70
2022-12-18T06:46:06.902Z,6.47
2022-12-18T06:48:34.507Z,6.53
2022-12-18T06:51:02.247Z,7.30
2022-12-18T06:53:30.488Z,6.33
2022-12-18T06:56:10.377Z,6.80
2022-12-18T06:58:39.535Z,7.07
2022-12-18T07:01:10.252Z,6.47
2022-12-18T07:03:41.944Z,3.93
2022-12-18T07:06:17.426Z,7.83
2022-12-18T07:08:46.187Z,8.20
2022-12-18T07:11:14.555Z,7.67
2022-12-18T07:13:43.034Z,7.63
2022-12-18T07:16:24.837Z,4.13
2022-12-18T07:18:53.465Z,8.87
2022-12-18T07:21:22.540Z,7.83
2022-12-18T07:23:49.827Z,8.47
2022-12-18T07:26:20.736Z,8.97
2022-12-18T07:28:48.399Z,8.50
2022-12-18T07:31:22.159Z,6.83
2022-12-18T07:33:50.007Z,4.37
2022-12-18T07:36:17.337Z,4.87
2022-12-18T07:38:44.857Z,8.13
2022-12-18T07:41:14.707Z,7.33
2022-12-18T07:43:43.467Z,7.40
2022-12-18T07:46:13.470Z,7.77
2022-12-18T07:48:42.557Z,6.27
2022-12-18T07:51:13.833Z,6.80
2022-12-18T07:53:41.696Z,5.80
2022-12-18T07:56:30.112Z,7.60
2022-12-18T07:59:00.191Z,4.53
2022-12-18T08:01:28.115Z,8.33
2022-12-18T08:03:55.393Z,7.37
2022-12-18T08:06:24.465Z,8.93
2022-12-18T08:08:55.543Z,4.70
2022-12-18T08:11:26.702Z,6.00
2022-12-18T08:13:54.472Z,4.50
2022-12-18T08:16:23.719Z,7.43
2022-12-18T08:18:54.814Z,5.30
2022-12-18T08:21:28.739Z,7.30
2022-12-18T08:23:59.585Z,7.57
2022-12-18T08:26:29.293Z,6.93
2022-12-18T08:28:57.920Z,6.77
2022-12-18T08:31:26.412Z,6.80
2022-12-18T08:33:55.366Z,6.00
2022-12-18T08:36:24.521Z,9.07
2022-12-18T08:38:53.028Z,5.43
2022-12-18T08:41:21.351Z,4.43
2022-12-18T08:44:07.201Z,5.73
2022-12-18T08:46:39.721Z,6.43
2022-12-18T08:49:08.507Z,5.50
2022-12-18T08:51:35.504Z,5.80
2022-12-18T08:54:03.297Z,4.83
2022-12-18T08:56:32.104Z,6.20
2022-12-18T08:58:58.986Z,4.83
2022-12-18T09:01:26.195Z,5.27
2022-12-18T09:03:53.225Z,4.00
2022-12-18T09:06:24.315Z,4.30
2022-12-18T09:08:51.735Z,4.17
2022-12-18T09:11:28.265Z,3.97
2022-12-18T09:13:56.839Z,6.93
2022-12-18T09:16:31.655Z,6.23
2022-12-18T09:19:00.823Z,4.53
2022-12-18T09:21:31.582Z,6.43
2022-12-18T09:24:00.208Z,5.73
2022-12-18T09:26:27.963Z,5.17
2022-12-18T09:28:55.227Z,3.07
2022-12-18T09:31:24.649Z,7.53
2022-12-18T09:33:52.508Z,5.93
2022-12-18T09:36:19.846Z,3.40
2022-12-18T09:38:46.723Z,3.07
2022-12-18T09:41:54.525Z,5.63
2022-12-18T09:44:45.701Z,3.90
2022-12-18T09:47:30.590Z,4.47
2022-12-18T09:50:10.518Z,3.23
2022-12-18T09:52:51.439Z,5.40
2022-12-18T09:55:37.153Z,4.00
2022-12-18T09:58:36.654Z,6.43
2022-12-18T10:01:08.066Z,5.60
2022-12-18T10:03:35.619Z,2.50
2022-12-18T10:06:39.237Z,4.63
2022-12-18T10:09:40.508Z,4.70
2022-12-18T10:12:21.292Z,4.33
2022-12-18T10:15:23.309Z,2.60
2022-12-18T10:18:01.291Z,5.33
2022-12-18T10:20:52.601Z,3.10
2022-12-18T10:23:45.079Z,3.23
2022-12-18T10:26:14.994Z,3.00
2022-12-18T10:28:43.252Z,3.20
2022-12-18T10:31:21.221Z,6.27
2022-12-18T10:33:54.743Z,4.27
2022-12-18T10:36:22.231Z,4.37
2022-12-18T10:38:50.711Z,4.40
2022-12-18T10:41:22.884Z,3.93
2022-12-18T10:44:12.507Z,4.83
2022-12-18T10:46:40.136Z,2.73
2022-12-18T10:49:20.309Z,5.10
2022-12-18T10:51:47.313Z,4.37
2022-12-18T10:54:22.258Z,3.43
2022-12-18T10:56:49.610Z,3.50
2022-12-18T10:59:20.021Z,2.50
2022-12-18T11:01:59.022Z,3.53
2022-12-18T11:04:29.755Z,3.67
2022-12-18T11:07:06.068Z,3.77
2022-12-18T11:09:35.309Z,2.90
2022-12-18T11:12:18.693Z,2.93
2022-12-18T11:14:49.776Z,3.13
2022-12-18T11:17:33.684Z,4.40
2022-12-18T11:20:19.947Z,4.93
2022-12-18T11:23:01.628Z,4.17
2022-12-18T11:25:35.712Z,2.83
2022-12-18T11:28:27.442Z,3.43
2022-12-18T11:31:33.668Z,3.37
2022-12-18T11:34:29.565Z,2.63
2022-12-18T11:37:01.734Z,2.77
2022-12-18T11:40:03.318Z,3.80
2022-12-18T11:42:47.459Z,3.40
2022-12-18T11:45:14.249Z,3.37
2022-12-18T11:47:57.564Z,2.43
2022-12-18T11:51:02.820Z,3.33
2022-12-18T11:53:31.409Z,3.23
2022-12-18T11:56:26.083Z,1.53
2022-12-18T11:59:23.004Z,6.53
2022-12-18T12:02:15.786Z,3.40
2022-12-18T12:05:05.124Z,5.43
2022-12-18T12:07:58.791Z,5.23
2022-12-18T12:11:18.849Z,3.73
2022-12-18T12:14:36.813Z,4.17
2022-12-18T12:17:45.786Z,2.23
2022-12-18T12:20:35.929Z,7.83
2022-12-18T12:23:26.066Z,6.73
2022-12-18T12:26:14.268Z,6.73
2022-12-18T12:29:21.282Z,3.47
2022-12-18T12:31:58.814Z,7.60
2022-12-18T12:34:59.226Z,5.67
2022-12-18T12:37:37.045Z,6.17
2022-12-18T12:40:26.852Z,3.83
2022-12-18T12:43:15.561Z,6.77
2022-12-18T12:46:09.929Z,5.20
2022-12-18T12:48:48.690Z,3.57
2022-12-18T12:51:20.880Z,4.00
2022-12-18T12:53:49.873Z,5.03
2022-12-18T12:56:20.868Z,3.40
2022-12-18T12:59:19.520Z,3.70
2022-12-18T13:02:27.674Z,6.07
2022-12-18T13:05:18.882Z,4.97
2022-12-18T13:08:23.000Z,5.80
2022-12-18T13:11:11.374Z,5.27
2022-12-18T13:13:57.194Z,3.83
2022-12-18T13:16:28.479Z,5.43
2022-12-18T13:18:59.796Z,7.30
2022-12-18T13:21:33.337Z,5.57
2022-12-18T13:24:26.752Z,5.97
2022-12-18T13:26:54.753Z,6.40
2022-12-18T13:29:57.299Z,10.77
2022-12-18T13:32:26.703Z,9.17
2022-12-18T13:35:19.103Z,8.40
2022-12-18T13:37:55.629Z,8.70
2022-12-18T13:40:51.278Z,5.13
2022-12-18T13:43:21.183Z,8.00
2022-12-18T13:46:23.439Z,12.23
2022-12-18T13:49:20.102Z,7.97
2022-12-18T13:51:54.434Z,3.77
2022-12-18T13:54:43.272Z,9.57
2022-12-18T13:57:35.129Z,7.47
2022-12-18T14:00:37.749Z,8.10
2022-12-18T14:03:22.120Z,8.90
2022-12-18T14:05:59.134Z,6.70
2022-12-18T14:08:38.914Z,9.53
2022-12-18T14:11:08.108Z,7.90
2022-12-18T14:13:43.059Z,8.00
2022-12-18T14:16:17.681Z,12.17
2022-12-18T14:19:04.102Z,8.80
2022-12-18T14:21:49.012Z,4.70
2022-12-18T14:24:22.467Z,10.13
2022-12-18T14:26:51.438Z,7.23
2022-12-18T14:29:30.745Z,9.40
2022-12-18T14:32:13.353Z,8.20
2022-12-18T14:34:52.559Z,7.20
2022-12-18T14:37:25.909Z,7.93
2022-12-18T14:40:07.164Z,7.57
2022-12-18T14:42:38.251Z,8.87
2022-12-18T14:45:53.493Z,8.97
2022-12-18T14:48:40.746Z,4.67
2022-12-18T14:51:11.947Z,6.47
2022-12-18T14:53:50.395Z,9.57
2022-12-18T14:56:26.230Z,11.03
2022-12-18T14:59:01.554Z,14.07
2022-12-18T15:01:38.067Z,9.37
2022-12-18T15:04:26.750Z,7.20
2022-12-18T15:07:17.342Z,8.93
2022-12-18T15:10:17.941Z,7.30
2022-12-18T15:13:03.379Z,5.67
2022-12-18T15:15:39.045Z,9.87
2022-12-18T15:18:08.837Z,7.60
2022-12-18T15:20:52.382Z,7.57
2022-12-18T15:23:37.606Z,7.67
2022-12-18T15:26:10.918Z,7.10
2022-12-18T15:28:56.023Z,8.03
2022-12-18T15:31:36.314Z,7.43
2022-12-18T15:34:14.449Z,10.43
2022-12-18T15:36:41.629Z,7.07
2022-12-18T15:39:14.191Z,14.20
2022-12-18T15:41:41.522Z,7.23
2022-12-18T15:44:29.724Z,7.80
2022-12-18T15:47:02.154Z,12.10
2022-12-18T15:49:29.142Z,9.37
2022-12-18T15:52:02.337Z,6.37
2022-12-18T15:54:48.601Z,7.53
2022-12-18T15:57:24.542Z,9.57
2022-12-18T15:59:54.499Z,11.50
2022-12-18T16:02:23.709Z,9.10
2022-12-18T16:04:53.665Z,8.87
2022-12-18T16:07:24.589Z,11.17
2022-12-18T16:09:52.519Z,14.53
2022-12-18T16:12:23.798Z,7.37
2022-12-18T16:14:51.790Z,9.37
2022-12-18T16:17:18.867Z,12.07
2022-12-18T16:19:46.471Z,10.30
2022-12-18T16:22:23.868Z,10.40
2022-12-18T16:24:53.227Z,11.33
2022-12-18T16:27:20.686Z,16.20
2022-12-18T16:29:48.001Z,12.37
2022-12-18T16:32:18.967Z,15.13
2022-12-18T16:34:46.903Z,10.63
2022-12-18T16:37:16.325Z,12.87
2022-12-18T16:39:43.655Z,15.47
2022-12-18T16:42:19.569Z,7.83
2022-12-18T16:44:48.112Z,9.20
2022-12-18T16:47:15.953Z,7.97
2022-12-18T16:49:45.693Z,8.77
2022-12-18T16:52:12.984Z,11.77
2022-12-18T16:54:39.799Z,9.33
2022-12-18T16:57:06.771Z,14.00
2022-12-18T16:59:36.776Z,10.10
2022-12-18T17:02:14.304Z,9.87
2022-12-18T17:04:42.301Z,11.60
2022-12-18T17:07:10.192Z,13.40
2022-12-18T17:09:38.481Z,8.37
2022-12-18T17:12:05.810Z,10.97
2022-12-18T17:14:33.584Z,9.80
2022-12-18T17:17:20.736Z,13.33
2022-12-18T17:19:47.986Z,10.17
2022-12-18T17:22:14.822Z,7.77
2022-12-18T17:24:41.791Z,13.27
2022-12-18T17:27:08.868Z,11.50
2022-12-18T17:29:35.992Z,10.30
2022-12-18T17:32:03.008Z,12.13
2022-12-18T17:34:30.098Z,10.07
2022-12-18T17:36:57.922Z,9.13
2022-12-18T17:39:24.788Z,12.20
2022-12-18T17:41:51.722Z,13.10
2022-12-18T17:44:18.960Z,10.97
2022-12-18T17:46:46.829Z,7.63
2022-12-18T17:49:14.512Z,8.00
2022-12-18T17:51:43.011Z,9.60
2022-12-18T17:54:10.958Z,13.83
2022-12-18T17:56:39.457Z,12.13
2022-12-18T17:59:07.118Z,8.20
2022-12-18T18:01:37.325Z,6.43
2022-12-18T18:04:07.305Z,8.47
2022-12-18T18:06:34.879Z,6.93
2022-12-18T18:09:05.906Z,13.13
2022-12-18T18:11:53.793Z,7.97
2022-12-18T18:14:22.492Z,9.97
2022-12-18T18:16:52.284Z,9.97
2022-12-18T18:19:23.550Z,6.97
2022-12-18T18:21:53.213Z,8.90
2022-12-18T18:24:23.709Z,6.37
2022-12-18T18:26:50.837Z,15.53
2022-12-18T18:29:30.463Z,12.77
2022-12-18T18:31:58.533Z,4.20
2022-12-18T18:34:30.267Z,10.63
2022-12-18T18:37:02.006Z,8.50
2022-12-18T18:39:29.964Z,8.70
2022-12-18T18:41:56.836Z,9.53
2022-12-18T18:44:25.912Z,11.40
2022-12-18T18:46:58.272Z,7.53
2022-12-18T18:49:27.406Z,10.03
2022-12-18T18:51:56.821Z,13.23
2022-12-18T18:54:24.657Z,10.47
2022-12-18T18:59:43.855Z,12.33
2022-12-18T19:02:16.646Z,13.57
2022-12-18T19:04:46.084Z,18.33
2022-12-18T19:07:29.981Z,10.80
2022-12-18T19:10:04.507Z,9.53
2022-12-18T19:12:52.123Z,16.43
2022-12-18T19:15:19.112Z,11.10
2022-12-18T19:17:47.188Z,15.97
2022-12-18T19:20:15.101Z,17.07
2022-12-18T19:22:42.325Z,12.60
2022-12-18T19:25:10.473Z,15.90
2022-12-18T19:27:39.990Z,12.23
2022-12-18T19:30:07.847Z,20.20
2022-12-18T19:32:34.699Z,12.20
2022-12-18T19:35:01.640Z,8.93
2022-12-18T19:37:29.140Z,8.07
2022-12-18T19:39:56.561Z,12.50
2022-12-18T19:42:28.044Z,9.77
2022-12-18T19:44:56.359Z,10.33
2022-12-18T19:47:23.175Z,14.50
2022-12-18T19:49:50.420Z,14.90
2022-12-18T19:52:17.278Z,15.77
2022-12-18T19:54:44.246Z,9.60
2022-12-18T19:57:12.459Z,10.87
2022-12-18T19:59:39.426Z,16.17
2022-12-18T20:02:14.638Z,13.90
2022-12-18T20:04:41.593Z,15.30
2022-12-18T20:07:08.443Z,6.43
2022-12-18T20:09:36.808Z,11.93
2022-12-18T20:12:04.958Z,16.60
2022-12-18T20:14:32.487Z,9.23
2022-12-18T20:16:59.727Z,6.23
2022-12-18T20:19:28.427Z,9.47
2022-12-18T20:21:58.337Z,10.63
2022-12-18T20:24:28.889Z,10.60
2022-12-18T20:26:59.728Z,9.17
2022-12-18T20:29:26.698Z,11.33
2022-12-18T20:31:53.711Z,9.70
2022-12-18T20:34:20.532Z,9.67
2022-12-18T20:36:47.534Z,9.53
2022-12-18T20:39:14.593Z,8.17
2022-12-18T20:41:42.517Z,13.60
2022-12-18T20:44:22.774Z,8.27
2022-12-18T20:46:56.891Z,9.23
2022-12-18T20:49:26.467Z,7.90
2022-12-18T20:51:56.318Z,5.83
2022-12-18T20:54:26.042Z,7.20
2022-12-18T20:56:53.785Z,13.43
2022-12-18T20:59:22.930Z,8.90
2022-12-18T21:01:49.931Z,15.53
2022-12-18T21:04:19.254Z,15.53
2022-12-18T21:06:55.600Z,6.53
2022-12-18T21:09:33.261Z,10.73
2022-12-18T21:12:29.644Z,10.30
2022-12-18T21:15:07.860Z,16.10
2022-12-18T21:17:42.938Z,13.10
2022-12-18T21:20:17.610Z,16.50
2022-12-18T21:22:45.427Z,8.87
2022-12-18T21:25:12.242Z,6.60
2022-12-18T21:27:39.018Z,14.87
2022-12-18T21:30:07.175Z,11.23
2022-12-18T21:32:33.993Z,9.67
2022-12-18T21:35:00.870Z,9.93
2022-12-18T21:37:27.758Z,11.83
2022-12-18T21:39:54.587Z,16.20
2022-12-18T21:42:40.389Z,6.27
2022-12-18T21:45:07.906Z,18.70
2022-12-18T21:47:34.735Z,10.33
2022-12-18T21:50:01.650Z,14.77
2022-12-18T21:52:32.517Z,17.73
2022-12-18T21:55:09.172Z,9.63
2022-12-18T21:57:39.590Z,7.70
2022-12-18T22:00:18.202Z,13.37
2022-12-18T22:02:45.883Z,13.33
2022-12-18T22:05:12.825Z,12.27
2022-12-18T22:07:40.428Z,13.30
2022-12-18T22:10:09.102Z,12.63
2022-12-18T22:12:41.591Z,15.43
2022-12-18T22:15:21.218Z,16.60
2022-12-18T22:17:50.593Z,9.70
2022-12-18T22:20:20.211Z,16.50
2022-12-18T22:22:48.512Z,14.37
2022-12-18T22:25:15.437Z,14.27
2022-12-18T22:27:42.430Z,13.47
2022-12-18T22:30:14.381Z,8.97
2022-12-18T22:32:41.176Z,13.93
2022-12-18T22:35:15.421Z,12.40
2022-12-18T22:37:42.786Z,9.17
2022-12-18T22:40:28.977Z,9.00
2022-12-18T22:42:56.183Z,7.03
2022-12-18T22:45:24.655Z,7.50
2022-12-18T22:47:51.669Z,7.50
2022-12-18T22:50:18.654Z,15.17
2022-12-18T22:52:45.512Z,6.63
2022-12-18T22:55:12.405Z,12.07
2022-12-18T22:57:40.279Z,18.63
2022-12-18T23:00:11.987Z,13.27
2022-12-18T23:02:39.017Z,11.40
2022-12-18T23:05:09.179Z,15.17
2022-12-18T23:07:36.042Z,16.07
2022-12-18T23:10:03.044Z,11.80
2022-12-18T23:12:29.891Z,9.73
2022-12-18T23:14:58.090Z,11.03
2022-12-18T23:17:25.716Z,11.73
2022-12-18T23:19:52.505Z,9.87
2022-12-18T23:22:19.346Z,13.90
2022-12-18T23:24:46.943Z,14.53
2022-12-18T23:27:14.037Z,9.37
2022-12-18T23:29:41.187Z,9.20
2022-12-18T23:32:08.174Z,9.30
2022-12-18T23:34:34.950Z,8.07
2022-12-18T23:37:03.622Z,13.80
2022-12-18T23:39:30.742Z,8.13
2022-12-18T23:42:00.964Z,12.40
2022-12-18T23:44:28.497Z,15.40
2022-12-18T23:46:55.637Z,8.03
2022-12-18T23:49:22.994Z,13.17
2022-12-18T23:51:50.332Z,11.77
2022-12-18T23:54:17.235Z,6.20
2022-12-18T23:56:49.196Z,15.23
2022-12-18T23:59:15.957Z,12.80
